createdAt,value
2019-02-12T00:00:35.291Z,2.60
2019-02-12T00:03:08.763Z,1.53
2019-02-12T00:05:38.952Z,3.23
2019-02-12T00:08:14.529Z,3.77
2019-02-12T00:10:50.716Z,5.07
2019-02-12T00:13:22.633Z,3.33
2019-02-12T00:15:53.910Z,4.23
2019-02-12T00:18:31.005Z,1.20
2019-02-12T00:21:09.179Z,4.73
2019-02-12T00:23:42.742Z,5.90
2019-02-12T00:26:19.335Z,5.37
2019-02-12T00:28:52.997Z,3.80
2019-02-12T00:31:24.735Z,7.00
2019-02-12T00:33:59.686Z,3.87
2019-02-12T00:36:33.467Z,8.60
2019-02-12T00:42:03.780Z,4.87
2019-02-12T00:44:37.246Z,6.23
2019-02-12T00:47:09.088Z,7.13
2019-02-12T00:49:44.850Z,8.77
2019-02-12T00:52:20.505Z,6.10
2019-02-12T00:54:53.022Z,8.33
2019-02-12T00:57:26.065Z,5.33
2019-02-12T00:59:58.492Z,5.20
2019-02-12T01:02:34.265Z,5.30
2019-02-12T01:05:04.507Z,6.37
2019-02-12T01:07:37.538Z,8.90
2019-02-12T01:10:08.815Z,8.17
2019-02-12T01:12:40.299Z,8.93
2019-02-12T01:15:15.533Z,5.67
2019-02-12T01:17:55.053Z,0.73
2019-02-12T01:20:31.658Z,6.10
2019-02-12T01:23:12.242Z,5.63
2019-02-12T01:25:42.165Z,8.87
2019-02-12T01:28:20.712Z,4.53
2019-02-12T01:30:53.871Z,8.30
2019-02-12T01:33:28.372Z,9.47
2019-02-12T01:36:17.914Z,5.87
2019-02-12T01:38:50.114Z,4.07
2019-02-12T01:41:32.004Z,7.70
2019-02-12T01:44:02.764Z,7.03
2019-02-12T01:46:40.630Z,1.23
2019-02-12T01:49:13.632Z,3.90
2019-02-12T01:51:46.715Z,5.40
2019-02-12T01:54:24.280Z,5.67
2019-02-12T01:57:06.231Z,3.50
2019-02-12T01:59:50.682Z,7.20
2019-02-12T02:02:41.166Z,10.80
2019-02-12T02:05:15.704Z,6.33
2019-02-12T02:07:49.599Z,6.37
2019-02-12T02:10:29.395Z,8.23
2019-02-12T02:13:02.006Z,6.43
2019-02-12T02:15:34.397Z,9.80
2019-02-12T02:18:06.095Z,3.97
2019-02-12T02:20:43.207Z,7.00
2019-02-12T02:23:17.875Z,4.70
2019-02-12T02:25:49.292Z,13.30
2019-02-12T02:28:26.619Z,12.47
2019-02-12T02:31:04.409Z,4.83
2019-02-12T02:33:37.087Z,9.13
2019-02-12T02:36:11.353Z,8.03
2019-02-12T02:38:46.843Z,9.07
2019-02-12T02:41:18.249Z,12.60
2019-02-12T02:43:48.263Z,9.83
2019-02-12T02:46:22.855Z,5.50
2019-02-12T02:48:55.448Z,9.57
2019-02-12T02:51:26.531Z,7.13
2019-02-12T02:53:57.652Z,8.03
2019-02-12T02:56:27.938Z,5.67
2019-02-12T02:58:57.949Z,6.20
2019-02-12T03:01:30.984Z,5.63
2019-02-12T03:04:02.080Z,5.80
2019-02-12T03:06:31.984Z,5.17
2019-02-12T03:09:01.832Z,3.40
2019-02-12T03:11:34.834Z,5.53
2019-02-12T03:14:14.285Z,5.60
2019-02-12T03:16:49.256Z,4.33
2019-02-12T03:19:25.955Z,6.63
2019-02-12T03:22:03.405Z,3.37
2019-02-12T03:24:29.024Z,10.10
2019-02-12T03:26:59.539Z,6.57
2019-02-12T03:29:46.483Z,6.93
2019-02-12T03:32:24.086Z,7.47
2019-02-12T03:35:03.208Z,6.23
2019-02-12T03:37:35.708Z,4.17
2019-02-12T03:40:10.166Z,9.97
2019-02-12T03:42:40.016Z,5.47
2019-02-12T03:45:15.771Z,6.77
2019-02-12T03:47:48.200Z,5.30
2019-02-12T03:50:20.916Z,4.60
2019-02-12T03:52:50.673Z,5.77
2019-02-12T03:55:20.638Z,11.73
2019-02-12T03:57:51.194Z,3.90
2019-02-12T04:00:20.917Z,7.43
2019-02-12T04:03:04.514Z,8.70
2019-02-12T04:05:35.716Z,9.00
2019-02-12T04:08:05.804Z,11.10
2019-02-12T04:10:39.037Z,7.43
2019-02-12T04:13:08.826Z,8.10
2019-02-12T04:15:42.954Z,9.47
2019-02-12T04:18:21.347Z,10.00
2019-02-12T04:20:54.264Z,12.73
2019-02-12T04:23:25.330Z,6.63
2019-02-12T04:25:57.523Z,13.13
2019-02-12T04:28:27.566Z,12.60
2019-02-12T04:31:01.951Z,11.50
2019-02-12T04:33:31.807Z,10.63
2019-02-12T04:36:08.850Z,4.63
2019-02-12T04:38:49.203Z,6.60
2019-02-12T04:41:29.923Z,6.60
2019-02-12T04:44:02.565Z,5.70
2019-02-12T04:46:32.486Z,9.07
2019-02-12T04:49:07.066Z,10.00
2019-02-12T04:51:36.805Z,9.40
2019-02-12T04:54:06.576Z,11.43
2019-02-12T04:56:37.840Z,5.87
2019-02-12T04:59:10.733Z,6.77
2019-02-12T05:01:40.614Z,10.70
2019-02-12T05:04:10.483Z,7.37
2019-02-12T05:06:40.300Z,7.97
2019-02-12T05:09:20.773Z,5.93
2019-02-12T05:11:57.953Z,11.93
2019-02-12T05:14:27.722Z,4.63
2019-02-12T05:16:57.501Z,11.50
2019-02-12T05:19:27.532Z,9.53
2019-02-12T05:21:57.364Z,9.57
2019-02-12T05:24:27.270Z,6.13
2019-02-12T05:26:57.213Z,16.30
2019-02-12T05:29:29.234Z,6.67
2019-02-12T05:32:01.782Z,9.73
2019-02-12T05:34:37.228Z,10.97
2019-02-12T05:37:06.993Z,11.20
2019-02-12T05:39:41.539Z,8.83
2019-02-12T05:42:20.277Z,7.13
2019-02-12T05:44:55.889Z,10.47
2019-02-12T05:47:35.589Z,11.77
2019-02-12T05:50:07.938Z,6.27
2019-02-12T05:52:37.716Z,4.83
2019-02-12T05:55:07.807Z,6.43
2019-02-12T05:57:40.425Z,11.50
2019-02-12T06:00:14.646Z,14.00
2019-02-12T06:02:47.498Z,9.93
2019-02-12T06:05:27.049Z,10.37
2019-02-12T06:07:57.121Z,6.70
2019-02-12T06:10:27.243Z,7.10
2019-02-12T06:13:05.667Z,14.67
2019-02-12T06:15:37.193Z,14.70
2019-02-12T06:18:09.632Z,11.63
2019-02-12T06:20:39.464Z,9.70
2019-02-12T06:23:11.430Z,9.20
2019-02-12T06:25:44.761Z,17.77
2019-02-12T06:28:18.941Z,11.43
2019-02-12T06:30:50.046Z,7.13
2019-02-12T06:33:22.541Z,8.97
2019-02-12T06:35:53.554Z,6.97
2019-02-12T06:38:23.898Z,11.43
2019-02-12T06:40:53.879Z,11.57
2019-02-12T06:43:23.686Z,10.80
2019-02-12T06:45:55.130Z,14.63
2019-02-12T06:48:24.963Z,3.43
2019-02-12T06:50:59.357Z,3.73
2019-02-12T06:53:29.147Z,9.60
2019-02-12T06:56:00.134Z,11.33
2019-02-12T06:58:31.628Z,6.50
2019-02-12T07:01:09.107Z,11.27
2019-02-12T07:03:52.824Z,6.43
2019-02-12T07:07:07.655Z,5.80
2019-02-12T07:09:45.725Z,4.23
2019-02-12T07:12:50.282Z,3.63
2019-02-12T07:15:24.180Z,11.60
2019-02-12T07:18:19.131Z,6.17
2019-02-12T07:21:28.702Z,4.43
2019-02-12T07:24:32.668Z,5.53
2019-02-12T07:27:50.038Z,5.90
2019-02-12T07:31:18.872Z,10.67
2019-02-12T07:34:03.808Z,5.83
2019-02-12T07:37:13.307Z,4.83
2019-02-12T07:40:03.007Z,8.23
2019-02-12T07:42:54.401Z,10.50
2019-02-12T07:46:00.505Z,7.37
2019-02-12T07:48:59.368Z,8.77
2019-02-12T07:51:59.335Z,8.07
2019-02-12T07:55:05.442Z,2.27
2019-02-12T07:58:01.517Z,9.47
2019-02-12T08:01:10.376Z,5.23
2019-02-12T08:04:30.228Z,9.23
2019-02-12T08:07:52.038Z,14.40
2019-02-12T08:11:02.659Z,11.90
2019-02-12T08:14:09.940Z,9.10
2019-02-12T08:17:15.269Z,4.70
2019-02-12T08:20:19.631Z,9.97
2019-02-12T08:23:28.816Z,8.87
2019-02-12T08:26:48.210Z,5.10
2019-02-12T08:30:10.803Z,2.83
2019-02-12T08:33:00.266Z,5.97
2019-02-12T08:36:29.069Z,4.27
2019-02-12T08:39:15.757Z,9.47
2019-02-12T08:42:39.939Z,1.03
2019-02-12T08:45:50.599Z,7.07
2019-02-12T08:48:47.653Z,4.20
2019-02-12T08:52:11.544Z,5.90
2019-02-12T08:55:15.276Z,6.53
2019-02-12T08:58:32.861Z,5.33
2019-02-12T09:01:40.183Z,11.27
2019-02-12T09:04:49.048Z,3.90
2019-02-12T09:07:57.689Z,7.90
2019-02-12T09:11:00.419Z,9.43
2019-02-12T09:14:17.536Z,4.20
2019-02-12T09:17:46.912Z,5.57
2019-02-12T09:21:11.845Z,5.13
2019-02-12T09:24:26.556Z,8.30
2019-02-12T09:27:43.037Z,5.17
2019-02-12T09:30:51.640Z,4.80
2019-02-12T09:34:04.181Z,1.03
2019-02-12T09:37:00.498Z,3.53
2019-02-12T09:40:09.537Z,5.37
2019-02-12T09:43:03.766Z,5.07
2019-02-12T09:46:21.237Z,7.53
2019-02-12T09:49:27.827Z,2.10
2019-02-12T09:52:47.157Z,7.40
2019-02-12T09:55:34.127Z,9.53
2019-02-12T09:58:45.395Z,1.97
2019-02-12T10:01:39.235Z,3.53
2019-02-12T10:04:41.060Z,7.17
2019-02-12T10:07:38.515Z,1.70
2019-02-12T10:10:38.777Z,3.80
2019-02-12T10:13:35.799Z,5.60
2019-02-12T10:16:37.499Z,7.33
2019-02-12T10:19:35.361Z,3.87
2019-02-12T10:22:43.630Z,6.97
2019-02-12T10:25:26.024Z,3.57
2019-02-12T10:28:23.783Z,17.73
2019-02-12T10:31:17.809Z,6.47
2019-02-12T10:33:47.963Z,10.53
2019-02-12T10:36:19.749Z,4.43
2019-02-12T10:38:51.768Z,5.80
2019-02-12T10:41:22.418Z,19.73
2019-02-12T10:43:55.305Z,10.57
2019-02-12T10:46:25.108Z,4.43
2019-02-12T10:48:56.218Z,9.33
2019-02-12T10:51:26.867Z,8.57
2019-02-12T10:53:56.960Z,8.53
2019-02-12T10:56:27.337Z,6.37
2019-02-12T10:59:01.987Z,6.30
2019-02-12T11:01:32.248Z,7.50
2019-02-12T11:04:05.540Z,6.73
2019-02-12T11:06:43.639Z,1.53
2019-02-12T11:09:17.422Z,2.07
2019-02-12T11:11:47.055Z,2.73
2019-02-12T11:14:19.197Z,3.67
2019-02-12T11:16:54.902Z,5.97
2019-02-12T11:19:24.809Z,3.23
2019-02-12T11:21:55.068Z,14.20
2019-02-12T11:24:35.440Z,3.53
2019-02-12T11:27:01.854Z,12.03
2019-02-12T11:29:34.651Z,5.97
2019-02-12T11:32:07.420Z,5.83
2019-02-12T11:34:40.280Z,10.23
2019-02-12T11:37:10.407Z,4.33
2019-02-12T11:39:46.584Z,9.10
2019-02-12T11:42:21.282Z,7.00
2019-02-12T11:44:51.984Z,3.27
2019-02-12T11:47:25.602Z,8.13
2019-02-12T11:49:58.845Z,2.40
2019-02-12T11:52:34.234Z,1.97
2019-02-12T11:55:06.612Z,8.87
2019-02-12T11:57:40.254Z,5.50
2019-02-12T12:00:13.010Z,3.70
2019-02-12T12:02:46.229Z,6.53
2019-02-12T12:05:18.906Z,5.87
2019-02-12T12:07:51.821Z,1.90
2019-02-12T12:10:21.791Z,3.73
2019-02-12T12:12:57.774Z,3.63
2019-02-12T12:15:29.986Z,2.83
2019-02-12T12:18:02.532Z,3.50
2019-02-12T12:20:31.525Z,2.10
2019-02-12T12:23:03.496Z,6.80
2019-02-12T12:25:35.902Z,2.97
2019-02-12T12:28:06.820Z,1.90
2019-02-12T12:30:39.660Z,2.70
2019-02-12T12:33:10.127Z,2.03
2019-02-12T12:35:40.045Z,4.53
2019-02-12T12:38:10.113Z,1.67
2019-02-12T12:40:40.039Z,4.23
2019-02-12T12:43:09.941Z,7.47
2019-02-12T12:45:40.064Z,1.73
2019-02-12T12:48:10.303Z,1.50
2019-02-12T12:50:44.462Z,5.83
2019-02-12T12:53:23.067Z,4.20
2019-02-12T12:55:52.663Z,6.03
2019-02-12T12:58:22.662Z,4.30
2019-02-12T13:00:56.272Z,8.10
2019-02-12T13:03:34.108Z,7.27
2019-02-12T13:06:11.551Z,5.93
2019-02-12T13:08:41.791Z,4.93
2019-02-12T13:11:16.016Z,8.30
2019-02-12T13:13:47.986Z,9.60
2019-02-12T13:16:20.650Z,2.00
2019-02-12T13:18:51.677Z,2.53
2019-02-12T13:21:24.513Z,2.73
2019-02-12T13:23:54.902Z,9.00
2019-02-12T13:26:28.243Z,4.60
2019-02-12T13:28:57.978Z,8.27
2019-02-12T13:31:30.541Z,2.40
2019-02-12T13:34:01.284Z,5.40
2019-02-12T13:36:31.147Z,1.57
2019-02-12T13:39:03.020Z,0.50
2019-02-12T13:41:35.613Z,5.67
2019-02-12T13:44:05.662Z,5.97
2019-02-12T13:46:37.795Z,6.50
2019-02-12T13:49:07.923Z,2.13
2019-02-12T13:51:41.132Z,0.80
2019-02-12T13:54:10.968Z,3.43
2019-02-12T13:56:42.758Z,7.17
2019-02-12T13:59:14.587Z,4.30
2019-02-12T14:01:44.504Z,6.50
2019-02-12T14:04:14.421Z,7.90
2019-02-12T14:06:46.914Z,5.63
2019-02-12T14:09:17.021Z,2.80
2019-02-12T14:11:47.898Z,4.83
2019-02-12T14:14:19.558Z,6.10
2019-02-12T14:16:49.745Z,4.03
2019-02-12T14:19:19.536Z,9.20
2019-02-12T14:21:52.066Z,3.13
2019-02-12T14:24:21.896Z,6.90
2019-02-12T14:26:51.540Z,4.13
2019-02-12T14:29:22.780Z,2.80
2019-02-12T14:31:55.252Z,2.50
2019-02-12T14:34:25.092Z,4.07
2019-02-12T14:36:56.550Z,4.97
2019-02-12T14:39:26.417Z,5.43
2019-02-12T14:41:56.125Z,5.83
2019-02-12T14:44:28.500Z,6.03
2019-02-12T14:46:58.594Z,7.70
2019-02-12T14:49:28.524Z,7.87
2019-02-12T14:51:58.558Z,4.63
2019-02-12T14:54:28.425Z,3.03
2019-02-12T14:56:58.083Z,5.03
2019-02-12T14:59:28.959Z,4.67
2019-02-12T15:01:58.781Z,2.17
2019-02-12T15:05:00.398Z,5.90
2019-02-12T15:07:32.347Z,4.23
2019-02-12T15:10:02.120Z,4.00
2019-02-12T15:12:31.891Z,5.20
2019-02-12T15:15:01.677Z,9.03
2019-02-12T15:17:32.760Z,6.43
2019-02-12T15:20:02.794Z,5.43
2019-02-12T15:22:32.639Z,4.83
2019-02-12T15:25:02.413Z,5.93
2019-02-12T15:27:32.082Z,8.03
2019-02-12T15:30:02.202Z,5.90
2019-02-12T15:32:31.939Z,5.37
2019-02-12T15:35:01.711Z,8.80
2019-02-12T15:37:31.559Z,6.70
2019-02-12T15:40:01.572Z,6.30
2019-02-12T15:42:31.658Z,7.80
2019-02-12T15:45:01.766Z,7.80
2019-02-12T15:47:31.544Z,5.00
2019-02-12T15:50:01.254Z,9.77
2019-02-12T15:52:31.109Z,8.23
2019-02-12T15:55:01.030Z,8.43
2019-02-12T15:58:35.574Z,9.00
2019-02-12T16:01:15.172Z,6.27
2019-02-12T16:03:45.312Z,9.03
2019-02-12T16:06:19.193Z,9.43
2019-02-12T16:08:49.034Z,12.03
2019-02-12T16:11:20.973Z,7.83
2019-02-12T16:13:51.099Z,10.70
2019-02-12T16:16:22.590Z,8.63
2019-02-12T16:18:52.605Z,12.60
2019-02-12T16:21:23.076Z,14.07
2019-02-12T16:23:53.013Z,14.07
2019-02-12T16:26:22.986Z,10.10
2019-02-12T16:28:52.683Z,16.30
2019-02-12T16:31:22.562Z,15.60
2019-02-12T16:33:52.344Z,7.93
2019-02-12T16:36:24.033Z,17.37
2019-02-12T16:39:00.867Z,21.23
2019-02-12T16:42:09.705Z,14.33
2019-02-12T16:44:45.388Z,20.73
2019-02-12T16:47:15.895Z,21.97
2019-02-12T16:49:45.853Z,25.70
2019-02-12T16:52:20.886Z,17.80
2019-02-12T16:54:47.833Z,17.63
2019-02-12T16:57:17.820Z,22.67
2019-02-12T16:59:51.859Z,18.63
2019-02-12T17:02:23.671Z,25.77
2019-02-12T17:04:54.807Z,14.87
2019-02-12T17:07:24.893Z,11.70
2019-02-12T17:09:55.096Z,16.50
2019-02-12T17:12:25.152Z,19.87
2019-02-12T17:14:56.243Z,11.83
2019-02-12T17:17:26.081Z,25.00
2019-02-12T17:19:57.009Z,16.37
2019-02-12T17:22:27.199Z,18.63
2019-02-12T17:24:58.388Z,15.70
2019-02-12T17:27:28.327Z,16.60
2019-02-12T17:29:58.392Z,14.47
2019-02-12T17:32:28.266Z,15.07
2019-02-12T17:35:01.356Z,27.20
2019-02-12T17:37:29.587Z,15.80
2019-02-12T17:40:01.986Z,19.30
2019-02-12T17:42:34.187Z,15.67
2019-02-12T17:45:04.558Z,14.77
2019-02-12T17:47:36.686Z,15.87
2019-02-12T17:50:07.145Z,13.63
2019-02-12T17:52:36.915Z,16.27
2019-02-12T17:55:07.020Z,13.67
2019-02-12T17:57:36.966Z,6.80
2019-02-12T18:00:12.463Z,15.53
2019-02-12T18:02:42.436Z,19.40
2019-02-12T18:05:12.200Z,14.97
2019-02-12T18:07:43.056Z,16.83
2019-02-12T18:10:13.174Z,9.27
2019-02-12T18:12:43.177Z,14.60
2019-02-12T18:15:13.367Z,18.83
2019-02-12T18:17:43.497Z,17.33
2019-02-12T18:20:13.729Z,23.60
2019-02-12T18:22:43.807Z,21.37
2019-02-12T18:25:21.647Z,21.23
2019-02-12T18:27:51.582Z,16.20
2019-02-12T18:30:21.596Z,18.43
2019-02-12T18:32:55.081Z,20.43
2019-02-12T18:35:25.433Z,18.17
2019-02-12T18:37:56.117Z,16.77
2019-02-12T18:40:30.185Z,13.43
2019-02-12T18:43:04.222Z,17.63
2019-02-12T18:45:56.368Z,14.63
2019-02-12T18:48:38.168Z,15.57
2019-02-12T18:51:37.916Z,19.87
2019-02-12T18:54:10.066Z,21.93
2019-02-12T18:56:42.038Z,18.53
2019-02-12T18:59:13.273Z,20.43
2019-02-12T19:01:44.686Z,24.30
2019-02-12T19:04:43.143Z,22.30
2019-02-12T19:07:20.750Z,22.93
2019-02-12T19:09:53.794Z,23.83
2019-02-12T19:12:24.422Z,19.30
2019-02-12T19:14:54.606Z,21.00
2019-02-12T19:17:27.026Z,25.43
2019-02-12T19:19:58.382Z,24.27
2019-02-12T19:22:28.595Z,25.70
2019-02-12T19:24:58.619Z,22.17
2019-02-12T19:27:31.706Z,26.17
2019-02-12T19:30:05.894Z,28.87
2019-02-12T19:32:35.825Z,26.73
2019-02-12T19:35:06.526Z,29.90
2019-02-12T19:37:38.141Z,28.27
2019-02-12T19:40:08.896Z,23.10
2019-02-12T19:42:41.164Z,30.27
2019-02-12T19:45:11.872Z,25.20
2019-02-12T19:47:42.347Z,24.57
2019-02-12T19:50:12.173Z,24.63
2019-02-12T19:52:42.025Z,27.17
2019-02-12T19:55:11.944Z,23.03
2019-02-12T19:57:42.992Z,23.23
2019-02-12T20:00:16.252Z,19.03
2019-02-12T20:02:46.087Z,17.40
2019-02-12T20:05:20.301Z,16.03
2019-02-12T20:07:50.778Z,18.63
2019-02-12T20:10:21.781Z,19.70
2019-02-12T20:12:51.622Z,17.40
2019-02-12T20:15:21.478Z,17.77
2019-02-12T20:17:52.708Z,21.70
2019-02-12T20:20:22.611Z,24.93
2019-02-12T20:22:52.597Z,25.77
2019-02-12T20:25:22.535Z,26.57
2019-02-12T20:27:54.791Z,26.00
2019-02-12T20:30:26.683Z,37.80
2019-02-12T20:32:56.531Z,34.93
2019-02-12T20:35:26.415Z,26.37
2019-02-12T20:37:59.536Z,32.63
2019-02-12T20:40:29.399Z,21.13
2019-02-12T20:42:59.289Z,24.80
2019-02-12T20:45:29.371Z,24.13
2019-02-12T20:47:59.293Z,20.70
2019-02-12T20:50:30.559Z,23.73
2019-02-12T20:53:09.002Z,20.83
2019-02-12T20:55:41.159Z,20.67
2019-02-12T20:58:12.597Z,20.73
2019-02-12T21:00:42.356Z,13.33
2019-02-12T21:03:12.314Z,20.17
2019-02-12T21:05:42.129Z,26.70
2019-02-12T21:08:12.065Z,16.57
2019-02-12T21:10:41.958Z,19.57
2019-02-12T21:13:11.826Z,18.93
2019-02-12T21:15:41.951Z,17.90
2019-02-12T21:18:11.947Z,18.70
2019-02-12T21:20:42.517Z,17.33
2019-02-12T21:23:12.654Z,20.43
2019-02-12T21:25:42.752Z,22.10
2019-02-12T21:28:12.746Z,18.60
2019-02-12T21:30:42.769Z,20.70
2019-02-12T21:33:12.714Z,18.73
2019-02-12T21:35:47.166Z,16.53
2019-02-12T21:39:00.620Z,19.43
2019-02-12T21:41:30.427Z,24.77
2019-02-12T21:44:00.212Z,22.77
2019-02-12T21:46:29.975Z,19.20
2019-02-12T21:48:59.916Z,20.57
2019-02-12T21:51:29.619Z,19.03
2019-02-12T21:53:59.541Z,19.03
2019-02-12T21:56:29.326Z,16.63
2019-02-12T21:58:59.360Z,13.70
2019-02-12T22:01:29.236Z,18.17
2019-02-12T22:03:59.006Z,16.87
2019-02-12T22:06:28.835Z,23.90
2019-02-12T22:09:01.157Z,17.73
2019-02-12T22:11:31.192Z,17.37
2019-02-12T22:14:01.157Z,16.13
2019-02-12T22:16:31.227Z,16.60
2019-02-12T22:19:01.049Z,13.37
2019-02-12T22:21:32.321Z,19.93
2019-02-12T22:24:02.427Z,15.90
2019-02-12T22:26:32.446Z,17.80
2019-02-12T22:29:02.195Z,21.03
2019-02-12T22:31:35.522Z,18.37
2019-02-12T22:34:05.312Z,15.87
2019-02-12T22:36:35.202Z,15.10
2019-02-12T22:39:07.519Z,18.63
2019-02-12T22:41:39.299Z,15.77
2019-02-12T22:44:09.024Z,17.23
2019-02-12T22:46:38.777Z,19.83
2019-02-12T22:49:08.531Z,14.60
2019-02-12T22:51:38.277Z,19.80
2019-02-12T22:54:08.062Z,13.83
2019-02-12T22:56:37.921Z,17.53
2019-02-12T22:59:07.769Z,19.73
2019-02-12T23:01:38.956Z,17.63
2019-02-12T23:04:08.933Z,19.17
2019-02-12T23:06:39.113Z,16.17
2019-02-12T23:09:19.033Z,17.83
2019-02-12T23:11:51.728Z,13.57
2019-02-12T23:14:21.950Z,15.83
2019-02-12T23:16:52.138Z,15.90
2019-02-12T23:19:27.912Z,15.53
2019-02-12T23:21:58.358Z,12.77
2019-02-12T23:24:32.336Z,12.40
2019-02-12T23:27:06.595Z,13.90
2019-02-12T23:29:43.600Z,15.33
2019-02-12T23:32:13.081Z,19.33
2019-02-12T23:34:42.920Z,14.23
2019-02-12T23:37:13.420Z,14.60
2019-02-12T23:39:43.222Z,20.63
2019-02-12T23:42:12.919Z,14.13
2019-02-12T23:44:42.871Z,12.53
2019-02-12T23:47:12.728Z,14.53
2019-02-12T23:49:42.452Z,12.03
2019-02-12T23:52:12.321Z,13.83
2019-02-12T23:54:42.093Z,11.40
2019-02-12T23:57:13.339Z,11.30
2019-02-12T23:59:43.023Z,12.03
